createdAt,value
2022-11-26T00:01:40.651Z,4.72
2022-11-26T00:04:08.027Z,4.50
2022-11-26T00:06:38.650Z,5.68
2022-11-26T00:09:12.342Z,5.60
2022-11-26T00:11:40.075Z,4.82
2022-11-26T00:14:16.517Z,5.57
2022-11-26T00:16:44.216Z,5.03
2022-11-26T00:19:11.145Z,5.65
2022-11-26T00:21:40.009Z,5.70
2022-11-26T00:24:26.348Z,6.15
2022-11-26T00:26:54.233Z,6.15
2022-11-26T00:29:21.041Z,5.90
2022-11-26T00:31:47.865Z,5.57
2022-11-26T00:34:14.741Z,6.78
2022-11-26T00:36:43.643Z,6.03
2022-11-26T00:39:15.605Z,6.05
2022-11-26T00:41:45.544Z,5.47
2022-11-26T00:44:22.890Z,6.80
2022-11-26T00:51:45.533Z,4.80
2022-11-26T00:54:15.927Z,5.75
2022-11-26T00:56:42.765Z,6.32
2022-11-26T00:59:14.231Z,6.00
2022-11-26T01:01:41.385Z,5.30
2022-11-26T01:04:08.512Z,7.45
2022-11-26T01:06:39.609Z,6.15
2022-11-26T01:09:11.947Z,6.32
2022-11-26T01:11:38.705Z,6.47
2022-11-26T01:14:06.818Z,6.25
2022-11-26T01:16:39.194Z,6.35
2022-11-26T01:19:06.499Z,6.20
2022-11-26T01:21:33.411Z,6.13
2022-11-26T01:24:00.194Z,4.97
2022-11-26T01:26:32.373Z,7.85
2022-11-26T01:28:59.140Z,5.15
2022-11-26T01:31:28.764Z,5.68
2022-11-26T01:33:56.568Z,5.53
2022-11-26T01:36:31.566Z,5.88
2022-11-26T01:39:05.989Z,5.38
2022-11-26T01:41:59.615Z,5.72
2022-11-26T01:44:29.870Z,6.78
2022-11-26T01:46:57.795Z,6.32
2022-11-26T01:49:28.012Z,6.55
2022-11-26T01:52:26.312Z,6.38
2022-11-26T01:54:53.406Z,7.10
2022-11-26T01:57:25.144Z,7.97
2022-11-26T01:59:55.441Z,7.60
2022-11-26T02:02:27.196Z,8.23
2022-11-26T02:05:14.920Z,7.95
2022-11-26T02:07:41.992Z,7.15
2022-11-26T02:10:09.567Z,7.35
2022-11-26T02:15:04.485Z,8.10
2022-11-26T02:17:36.982Z,8.57
2022-11-26T02:20:24.935Z,7.63
2022-11-26T02:23:27.983Z,6.85
2022-11-26T02:26:16.229Z,8.05
2022-11-26T02:29:07.947Z,9.77
2022-11-26T02:31:52.875Z,8.02
2022-11-26T02:34:26.379Z,8.52
2022-11-26T02:37:08.267Z,8.15
2022-11-26T02:39:35.015Z,6.88
2022-11-26T02:42:03.983Z,7.22
2022-11-26T02:44:43.837Z,7.90
2022-11-26T02:47:17.241Z,8.00
2022-11-26T02:49:46.171Z,7.85
2022-11-26T02:52:16.425Z,7.13
2022-11-26T02:54:45.610Z,7.40
2022-11-26T02:57:15.547Z,8.05
2022-11-26T02:59:42.710Z,7.72
2022-11-26T03:02:27.364Z,7.63
2022-11-26T03:04:57.048Z,7.25
2022-11-26T03:07:24.115Z,7.55
2022-11-26T03:09:54.279Z,7.55
2022-11-26T03:12:21.618Z,7.13
2022-11-26T03:14:48.405Z,8.02
2022-11-26T03:17:15.748Z,4.82
2022-11-26T03:19:42.562Z,5.97
2022-11-26T03:22:09.429Z,6.40
2022-11-26T03:24:37.428Z,6.93
2022-11-26T03:27:04.887Z,6.22
2022-11-26T03:29:32.112Z,6.00
2022-11-26T03:31:59.314Z,5.75
2022-11-26T03:34:26.193Z,7.30
2022-11-26T03:36:52.996Z,6.40
2022-11-26T03:39:19.726Z,5.75
2022-11-26T03:41:46.512Z,4.65
2022-11-26T03:44:14.081Z,6.15
2022-11-26T03:49:07.715Z,5.78
2022-11-26T03:51:34.504Z,7.13
2022-11-26T03:54:01.240Z,6.72
2022-11-26T03:56:28.006Z,5.63
2022-11-26T03:58:54.745Z,6.30
2022-11-26T04:03:49.082Z,6.03
2022-11-26T04:06:15.823Z,6.82
2022-11-26T04:08:42.576Z,8.45
2022-11-26T04:11:09.392Z,6.93
2022-11-26T04:13:36.286Z,6.38
2022-11-26T04:16:03.065Z,4.82
2022-11-26T04:18:29.844Z,6.72
2022-11-26T04:20:56.615Z,7.07
2022-11-26T04:23:23.699Z,7.55
2022-11-26T04:25:50.464Z,7.45
2022-11-26T04:28:17.285Z,7.85
2022-11-26T04:30:44.168Z,6.85
2022-11-26T04:33:11.240Z,8.02
2022-11-26T04:35:38.514Z,7.72
2022-11-26T04:38:05.363Z,6.82
2022-11-26T04:40:32.244Z,7.65
2022-11-26T04:42:59.042Z,5.18
2022-11-26T04:45:26.160Z,7.60
2022-11-26T04:47:53.406Z,6.90
2022-11-26T04:50:20.182Z,8.25
2022-11-26T04:52:48.449Z,5.30
2022-11-26T04:55:16.850Z,7.65
2022-11-26T04:57:44.513Z,7.38
2022-11-26T05:00:12.237Z,6.72
2022-11-26T05:02:39.057Z,7.72
2022-11-26T05:05:06.263Z,6.95
2022-11-26T05:07:33.511Z,8.35
2022-11-26T05:10:00.543Z,7.10
2022-11-26T05:12:27.317Z,7.53
2022-11-26T05:14:54.110Z,7.75
2022-11-26T05:17:20.910Z,7.18
2022-11-26T05:19:47.710Z,8.73
2022-11-26T05:22:14.679Z,6.78
2022-11-26T05:24:41.459Z,6.13
2022-11-26T05:27:08.340Z,6.25
2022-11-26T05:29:35.134Z,8.30
2022-11-26T05:32:01.940Z,8.55
2022-11-26T05:34:28.705Z,8.48
2022-11-26T05:36:55.566Z,8.85
2022-11-26T05:39:22.636Z,7.43
2022-11-26T05:41:49.439Z,9.38
2022-11-26T05:44:16.267Z,9.70
2022-11-26T05:46:43.237Z,10.77
2022-11-26T05:49:10.374Z,10.10
2022-11-26T05:51:37.145Z,10.25
2022-11-26T05:54:04.146Z,9.75
2022-11-26T05:56:30.910Z,11.65
2022-11-26T05:58:57.666Z,7.93
2022-11-26T06:01:24.491Z,10.20
2022-11-26T06:03:51.251Z,10.55
2022-11-26T06:06:18.121Z,8.35
2022-11-26T06:08:44.845Z,10.57
2022-11-26T06:11:13.047Z,12.25
2022-11-26T06:13:39.954Z,12.77
2022-11-26T06:16:07.616Z,11.65
2022-11-26T06:18:34.506Z,11.88
2022-11-26T06:21:02.509Z,8.00
2022-11-26T06:23:29.309Z,10.65
2022-11-26T06:25:56.055Z,12.25
2022-11-26T06:28:22.868Z,9.40
2022-11-26T06:30:49.750Z,11.55
2022-11-26T06:33:16.595Z,11.32
2022-11-26T06:35:43.450Z,8.48
2022-11-26T06:38:10.626Z,11.93
2022-11-26T06:40:37.395Z,12.63
2022-11-26T06:43:04.153Z,11.43
2022-11-26T06:45:30.958Z,11.05
2022-11-26T06:47:57.742Z,11.35
2022-11-26T06:50:24.482Z,11.32
2022-11-26T06:52:54.096Z,8.23
2022-11-26T06:55:21.361Z,10.60
2022-11-26T06:57:54.105Z,10.75
2022-11-26T07:00:21.899Z,9.60
2022-11-26T07:02:48.778Z,10.15
2022-11-26T07:05:15.672Z,7.18
2022-11-26T07:07:42.510Z,9.32
2022-11-26T07:10:09.529Z,10.32
2022-11-26T07:12:36.284Z,7.15
2022-11-26T07:15:03.346Z,9.32
2022-11-26T07:17:30.197Z,9.60
2022-11-26T07:19:56.956Z,7.20
2022-11-26T07:22:23.774Z,6.90
2022-11-26T07:24:50.585Z,7.22
2022-11-26T07:27:17.339Z,9.20
2022-11-26T07:29:44.239Z,7.93
2022-11-26T07:32:11.057Z,9.65
2022-11-26T07:34:38.076Z,7.32
2022-11-26T07:37:05.062Z,9.25
2022-11-26T07:39:32.021Z,8.88
2022-11-26T07:41:58.852Z,9.90
2022-11-26T07:44:25.616Z,9.25
2022-11-26T07:46:52.491Z,9.35
2022-11-26T07:49:19.388Z,7.38
2022-11-26T07:51:46.186Z,9.63
2022-11-26T07:54:12.951Z,9.32
2022-11-26T07:56:39.783Z,8.52
2022-11-26T07:59:06.572Z,8.50
2022-11-26T08:01:33.749Z,9.73
2022-11-26T08:04:03.930Z,10.02
2022-11-26T08:06:31.249Z,10.38
2022-11-26T08:09:02.358Z,9.18
2022-11-26T08:11:31.037Z,10.75
2022-11-26T08:14:06.615Z,9.52
2022-11-26T08:16:33.968Z,8.43
2022-11-26T08:19:05.760Z,9.75
2022-11-26T08:21:32.954Z,8.43
2022-11-26T08:24:00.184Z,10.25
2022-11-26T08:26:35.804Z,8.57
2022-11-26T08:29:04.145Z,7.78
2022-11-26T08:31:31.135Z,8.45
2022-11-26T08:34:01.591Z,7.22
2022-11-26T08:36:29.580Z,7.70
2022-11-26T08:38:56.898Z,6.88
2022-11-26T08:41:24.001Z,8.07
2022-11-26T08:44:06.144Z,7.90
2022-11-26T08:46:33.789Z,8.02
2022-11-26T08:49:00.634Z,8.82
2022-11-26T08:51:27.400Z,7.97
2022-11-26T08:53:54.240Z,6.53
2022-11-26T08:56:21.228Z,8.43
2022-11-26T08:58:48.961Z,5.82
2022-11-26T09:01:18.831Z,7.32
2022-11-26T09:03:48.587Z,7.65
2022-11-26T09:06:15.607Z,6.65
2022-11-26T09:09:01.377Z,5.90
2022-11-26T09:11:28.939Z,7.10
2022-11-26T09:16:25.301Z,6.80
2022-11-26T09:18:52.602Z,7.72
2022-11-26T09:21:20.355Z,8.45
2022-11-26T09:23:47.123Z,8.18
2022-11-26T09:26:13.971Z,5.28
2022-11-26T09:28:40.759Z,5.00
2022-11-26T09:31:07.540Z,6.75
2022-11-26T09:33:34.325Z,5.93
2022-11-26T09:36:09.634Z,5.20
2022-11-26T09:38:36.882Z,6.40
2022-11-26T09:41:12.270Z,5.88
2022-11-26T09:43:47.214Z,5.18
2022-11-26T09:46:17.235Z,4.55
2022-11-26T09:48:44.080Z,4.47
2022-11-26T09:51:15.518Z,4.97
2022-11-26T09:53:47.037Z,5.25
2022-11-26T09:56:20.073Z,5.05
2022-11-26T09:58:54.519Z,3.65
2022-11-26T10:01:23.194Z,5.70
2022-11-26T10:03:51.666Z,5.10
2022-11-26T10:06:49.520Z,4.22
2022-11-26T10:09:32.494Z,3.65
2022-11-26T10:12:19.979Z,3.22
2022-11-26T10:15:09.026Z,4.28
2022-11-26T10:17:58.395Z,3.58
2022-11-26T10:20:49.366Z,3.38
2022-11-26T10:23:40.484Z,3.85
2022-11-26T10:26:15.863Z,3.20
2022-11-26T10:28:49.494Z,3.00
2022-11-26T10:31:21.622Z,3.55
2022-11-26T10:33:56.207Z,2.45
2022-11-26T10:36:39.205Z,2.75
2022-11-26T10:39:08.003Z,3.03
2022-11-26T10:41:36.827Z,2.67
2022-11-26T10:44:29.519Z,3.08
2022-11-26T10:46:57.035Z,2.40
2022-11-26T10:51:59.980Z,3.25
2022-11-26T10:54:28.671Z,2.22
2022-11-26T10:56:56.168Z,2.03
2022-11-26T11:02:01.018Z,2.22
2022-11-26T11:04:32.052Z,2.53
2022-11-26T11:06:59.170Z,2.13
2022-11-26T11:09:32.843Z,2.55
2022-11-26T11:12:11.676Z,2.80
2022-11-26T11:14:43.121Z,3.35
2022-11-26T11:17:29.210Z,2.75
2022-11-26T11:20:21.984Z,2.38
2022-11-26T11:22:57.637Z,2.00
2022-11-26T11:25:33.623Z,3.33
2022-11-26T11:28:22.075Z,2.95
2022-11-26T11:31:19.805Z,2.78
2022-11-26T11:33:48.062Z,1.88
2022-11-26T11:36:17.536Z,2.30
2022-11-26T11:38:51.955Z,2.35
2022-11-26T11:41:24.746Z,2.17
2022-11-26T11:43:58.560Z,2.60
2022-11-26T11:46:40.026Z,1.98
2022-11-26T11:49:19.384Z,1.88
2022-11-26T11:52:27.485Z,2.53
2022-11-26T11:55:33.126Z,2.38
2022-11-26T11:58:30.617Z,2.50
2022-11-26T12:01:16.148Z,1.98
2022-11-26T12:04:15.072Z,1.80
2022-11-26T12:07:22.406Z,1.88
2022-11-26T12:10:01.450Z,2.70
2022-11-26T12:12:33.369Z,2.40
2022-11-26T12:15:07.124Z,2.35
2022-11-26T12:17:48.898Z,1.77
2022-11-26T12:20:54.351Z,2.22
2022-11-26T12:23:34.015Z,1.80
2022-11-26T12:26:12.120Z,1.73
2022-11-26T12:29:18.866Z,1.98
2022-11-26T12:34:22.116Z,2.67
2022-11-26T12:36:56.139Z,1.85
2022-11-26T12:39:53.986Z,2.03
2022-11-26T12:42:59.833Z,1.83
2022-11-26T12:45:45.029Z,1.63
2022-11-26T12:48:48.864Z,1.88
2022-11-26T12:51:29.035Z,2.35
2022-11-26T12:54:19.682Z,1.75
2022-11-26T12:57:01.097Z,2.25
2022-11-26T12:59:47.940Z,2.33
2022-11-26T13:02:25.133Z,2.58
2022-11-26T13:07:48.968Z,2.35
2022-11-26T13:10:34.505Z,2.10
2022-11-26T13:13:25.104Z,1.80
2022-11-26T13:16:23.227Z,2.80
2022-11-26T13:19:01.598Z,1.98
2022-11-26T13:21:42.555Z,2.30
2022-11-26T13:24:24.459Z,2.40
2022-11-26T13:27:23.392Z,2.75
2022-11-26T13:30:13.319Z,2.28
2022-11-26T13:33:18.235Z,2.72
2022-11-26T13:35:57.044Z,1.77
2022-11-26T13:38:49.655Z,1.75
2022-11-26T13:41:44.494Z,2.47
2022-11-26T13:44:30.101Z,2.60
2022-11-26T13:47:09.907Z,2.70
2022-11-26T13:49:52.584Z,2.22
2022-11-26T13:52:38.022Z,1.90
2022-11-26T13:55:25.310Z,2.05
2022-11-26T13:57:56.455Z,1.92
2022-11-26T14:00:29.273Z,2.15
2022-11-26T14:02:56.817Z,1.70
2022-11-26T14:07:50.729Z,1.70
2022-11-26T14:10:35.840Z,2.10
2022-11-26T14:13:02.648Z,2.15
2022-11-26T14:15:41.373Z,2.10
2022-11-26T14:18:13.352Z,2.13
2022-11-26T14:21:01.428Z,2.17
2022-11-26T14:23:48.038Z,2.20
2022-11-26T14:26:39.274Z,2.95
2022-11-26T14:29:08.774Z,2.05
2022-11-26T14:31:38.464Z,2.40
2022-11-26T14:34:39.685Z,1.70
2022-11-26T14:37:35.005Z,2.35
2022-11-26T14:40:19.409Z,2.53
2022-11-26T14:42:46.196Z,1.77
2022-11-26T14:45:21.374Z,2.65
2022-11-26T14:47:51.254Z,2.20
2022-11-26T14:50:22.206Z,1.95
2022-11-26T14:53:02.983Z,1.77
2022-11-26T14:55:31.429Z,2.08
2022-11-26T14:58:09.142Z,2.05
2022-11-26T15:00:36.847Z,2.25
2022-11-26T15:03:04.315Z,2.30
2022-11-26T15:05:33.921Z,1.98
2022-11-26T15:08:16.659Z,2.65
2022-11-26T15:11:00.931Z,1.67
2022-11-26T15:13:43.144Z,1.75
2022-11-26T15:16:33.637Z,1.90
2022-11-26T15:19:01.757Z,1.98
2022-11-26T15:21:29.078Z,2.10
2022-11-26T15:24:00.213Z,2.45
2022-11-26T15:26:34.035Z,1.73
2022-11-26T15:29:01.130Z,2.03
2022-11-26T15:31:43.174Z,1.73
2022-11-26T15:34:13.802Z,2.05
2022-11-26T15:36:40.735Z,1.83
2022-11-26T15:39:27.149Z,1.92
2022-11-26T15:41:58.157Z,2.33
2022-11-26T15:44:27.435Z,1.65
2022-11-26T15:46:57.097Z,1.70
2022-11-26T15:49:38.295Z,2.00
2022-11-26T15:52:11.840Z,1.98
2022-11-26T15:55:11.341Z,1.83
2022-11-26T15:57:40.347Z,2.03
2022-11-26T16:00:17.742Z,1.90
2022-11-26T16:02:45.305Z,1.63
2022-11-26T16:05:35.230Z,1.55
2022-11-26T16:08:05.470Z,2.33
2022-11-26T16:10:36.733Z,1.70
2022-11-26T16:13:15.407Z,1.92
2022-11-26T16:16:03.889Z,2.42
2022-11-26T16:18:35.645Z,2.22
2022-11-26T16:21:16.392Z,2.00
2022-11-26T16:23:43.223Z,2.35
2022-11-26T16:26:19.314Z,2.10
2022-11-26T16:28:47.153Z,2.17
2022-11-26T16:31:15.385Z,2.08
2022-11-26T16:33:43.082Z,1.95
2022-11-26T16:36:33.994Z,2.25
2022-11-26T16:39:00.782Z,2.40
2022-11-26T16:41:27.617Z,2.38
2022-11-26T16:43:54.404Z,2.03
2022-11-26T16:46:23.905Z,2.38
2022-11-26T16:48:51.535Z,2.28
2022-11-26T16:53:45.180Z,2.65
2022-11-26T16:56:25.917Z,2.13
2022-11-26T16:58:53.716Z,2.30
2022-11-26T17:01:20.758Z,2.22
2022-11-26T17:03:47.550Z,2.00
2022-11-26T17:06:24.763Z,2.15
2022-11-26T17:08:54.743Z,2.60
2022-11-26T17:11:22.133Z,2.85
2022-11-26T17:13:48.955Z,2.33
2022-11-26T17:16:21.377Z,2.85
2022-11-26T17:18:48.974Z,2.88
2022-11-26T17:21:16.014Z,2.75
2022-11-26T17:23:42.860Z,2.50
2022-11-26T17:26:23.017Z,2.80
2022-11-26T17:28:50.913Z,2.38
2022-11-26T17:31:18.133Z,2.88
2022-11-26T17:33:44.942Z,2.72
2022-11-26T17:36:17.680Z,2.25
2022-11-26T17:38:45.132Z,2.58
2022-11-26T17:41:12.551Z,3.08
2022-11-26T17:43:39.445Z,2.38
2022-11-26T17:46:13.240Z,2.72
2022-11-26T17:48:40.080Z,2.70
2022-11-26T17:51:06.853Z,3.03
2022-11-26T17:53:33.581Z,2.88
2022-11-26T17:56:00.360Z,2.58
2022-11-26T17:58:27.301Z,2.70
2022-11-26T18:00:54.073Z,2.70
2022-11-26T18:03:20.808Z,3.08
2022-11-26T18:05:47.549Z,3.10
2022-11-26T18:08:14.293Z,2.28
2022-11-26T18:10:41.270Z,2.90
2022-11-26T18:13:08.056Z,2.75
2022-11-26T18:15:34.870Z,2.42
2022-11-26T18:18:01.689Z,3.30
2022-11-26T18:20:28.753Z,3.60
2022-11-26T18:22:59.914Z,2.88
2022-11-26T18:25:27.966Z,3.08
2022-11-26T18:27:55.157Z,2.60
2022-11-26T18:30:22.131Z,2.13
2022-11-26T18:32:48.935Z,2.33
2022-11-26T18:35:15.865Z,2.38
2022-11-26T18:37:42.695Z,2.30
2022-11-26T18:40:13.895Z,1.98
2022-11-26T18:42:40.970Z,1.90
2022-11-26T18:45:10.102Z,2.40
2022-11-26T18:47:37.585Z,1.73
2022-11-26T18:52:31.380Z,1.60
2022-11-26T18:54:58.183Z,1.83
2022-11-26T18:57:25.018Z,2.70
2022-11-26T18:59:51.755Z,2.63
2022-11-26T19:02:18.677Z,1.77
2022-11-26T19:04:45.544Z,2.70
2022-11-26T19:07:14.026Z,3.22
2022-11-26T19:09:42.031Z,2.85
2022-11-26T19:12:09.210Z,2.20
2022-11-26T19:14:36.528Z,1.80
2022-11-26T19:17:03.632Z,2.33
2022-11-26T19:19:30.610Z,1.98
2022-11-26T19:22:00.928Z,2.78
2022-11-26T19:24:28.629Z,2.60
2022-11-26T19:26:55.470Z,2.95
2022-11-26T19:29:22.371Z,1.92
2022-11-26T19:31:49.163Z,2.20
2022-11-26T19:34:16.308Z,2.60
2022-11-26T19:36:47.954Z,2.05
2022-11-26T19:39:15.987Z,2.22
2022-11-26T19:41:43.290Z,1.80
2022-11-26T19:44:10.170Z,2.50
2022-11-26T19:46:40.518Z,2.17
2022-11-26T19:49:09.397Z,1.75
2022-11-26T19:51:36.163Z,2.40
2022-11-26T19:54:02.974Z,2.20
2022-11-26T19:56:31.414Z,1.95
2022-11-26T19:58:58.890Z,2.38
2022-11-26T20:03:54.167Z,2.22
2022-11-26T20:06:23.471Z,4.82
2022-11-26T20:08:50.501Z,5.72
2022-11-26T20:11:18.186Z,3.90
2022-11-26T20:13:47.164Z,3.05
2022-11-26T20:16:28.015Z,2.33
2022-11-26T20:18:55.967Z,3.08
2022-11-26T20:21:25.998Z,2.50
2022-11-26T20:23:54.293Z,2.55
2022-11-26T20:26:27.956Z,2.67
2022-11-26T20:28:55.973Z,3.00
2022-11-26T20:31:24.151Z,2.55
2022-11-26T20:33:52.742Z,2.83
2022-11-26T20:36:22.521Z,2.70
2022-11-26T20:38:56.967Z,4.65
2022-11-26T20:41:26.286Z,2.33
2022-11-26T20:43:58.705Z,2.60
2022-11-26T20:46:27.426Z,2.55
2022-11-26T20:48:54.426Z,2.08
2022-11-26T20:51:22.153Z,2.03
2022-11-26T20:53:50.439Z,2.60
2022-11-26T20:56:19.032Z,2.90
2022-11-26T20:58:45.921Z,6.10
2022-11-26T21:01:19.619Z,2.80
2022-11-26T21:03:46.510Z,3.20
2022-11-26T21:06:14.433Z,4.95
2022-11-26T21:08:42.140Z,3.13
2022-11-26T21:11:09.639Z,3.10
2022-11-26T21:16:06.133Z,3.13
2022-11-26T21:18:33.730Z,2.40
2022-11-26T21:23:27.387Z,2.83
2022-11-26T21:25:54.597Z,2.42
2022-11-26T21:28:21.458Z,2.92
2022-11-26T21:30:48.305Z,3.20
2022-11-26T21:33:15.197Z,2.70
2022-11-26T21:35:41.942Z,2.30
2022-11-26T21:38:09.002Z,2.22
2022-11-26T21:40:35.814Z,2.60
2022-11-26T21:43:02.663Z,3.13
2022-11-26T21:45:29.627Z,2.67
2022-11-26T21:47:56.421Z,1.65
2022-11-26T21:50:23.363Z,3.00
2022-11-26T21:52:50.148Z,3.03
2022-11-26T21:55:17.030Z,2.70
2022-11-26T21:57:43.862Z,3.13
2022-11-26T22:00:11.117Z,2.88
2022-11-26T22:02:38.041Z,2.72
2022-11-26T22:05:05.137Z,3.15
2022-11-26T22:07:32.194Z,2.35
2022-11-26T22:09:59.328Z,2.45
2022-11-26T22:12:26.090Z,3.03
2022-11-26T22:14:52.887Z,2.58
2022-11-26T22:17:19.638Z,2.70
2022-11-26T22:19:46.811Z,1.63
2022-11-26T22:22:13.575Z,2.00
2022-11-26T22:24:40.422Z,2.53
2022-11-26T22:27:07.186Z,2.63
2022-11-26T22:29:33.985Z,2.70
2022-11-26T22:32:00.761Z,2.38
2022-11-26T22:34:29.046Z,1.70
2022-11-26T22:36:55.871Z,2.65
2022-11-26T22:39:22.687Z,2.42
2022-11-26T22:41:49.876Z,2.15
2022-11-26T22:44:17.656Z,2.13
2022-11-26T22:46:45.478Z,2.08
2022-11-26T22:49:14.232Z,2.42
2022-11-26T22:51:41.253Z,2.42
2022-11-26T22:54:10.101Z,1.98
2022-11-26T22:56:40.190Z,2.28
2022-11-26T22:59:10.476Z,1.98
2022-11-26T23:01:37.551Z,2.08
2022-11-26T23:04:07.986Z,2.38
2022-11-26T23:06:35.974Z,2.22
2022-11-26T23:09:04.327Z,2.25
2022-11-26T23:11:34.030Z,1.65
2022-11-26T23:14:06.866Z,2.13
2022-11-26T23:16:34.144Z,2.22
2022-11-26T23:19:00.951Z,1.90
2022-11-26T23:21:30.852Z,2.03
2022-11-26T23:23:58.223Z,2.00
2022-11-26T23:26:30.542Z,2.25
2022-11-26T23:28:58.389Z,2.58
2022-11-26T23:31:35.890Z,2.58
2022-11-26T23:34:03.599Z,2.03
2022-11-26T23:36:31.635Z,2.00
2022-11-26T23:39:03.777Z,2.20
2022-11-26T23:41:30.950Z,2.00
2022-11-26T23:43:57.723Z,2.60
2022-11-26T23:46:32.525Z,2.10
2022-11-26T23:48:59.387Z,2.10
2022-11-26T23:51:32.031Z,2.20
2022-11-26T23:53:58.951Z,1.98
2022-11-26T23:56:31.947Z,2.33
2022-11-26T23:59:02.032Z,2.70
